sensor_id;sensor_type;location;lat;lon;timestamp;temperature;humidity
64718;DHT22;62506;46.070;14.492;2022-08-21T00:01:10;25.50;58.30
64718;DHT22;62506;46.070;14.492;2022-08-21T00:03:36;25.50;58.20
64718;DHT22;62506;46.070;14.492;2022-08-21T00:06:02;25.50;58.20
64718;DHT22;62506;46.070;14.492;2022-08-21T00:08:27;25.50;58.20
64718;DHT22;62506;46.070;14.492;2022-08-21T00:10:53;25.50;58.20
64718;DHT22;62506;46.070;14.492;2022-08-21T00:13:19;25.50;58.30
64718;DHT22;62506;46.070;14.492;2022-08-21T00:15:46;25.50;58.30
64718;DHT22;62506;46.070;14.492;2022-08-21T00:18:11;25.50;59.00
64718;DHT22;62506;46.070;14.492;2022-08-21T00:20:40;25.40;58.20
64718;DHT22;62506;46.070;14.492;2022-08-21T00:23:05;25.40;58.20
64718;DHT22;62506;46.070;14.492;2022-08-21T00:25:32;25.50;58.30
64718;DHT22;62506;46.070;14.492;2022-08-21T00:27:57;25.50;58.30
64718;DHT22;62506;46.070;14.492;2022-08-21T00:30:24;25.40;58.20
64718;DHT22;62506;46.070;14.492;2022-08-21T00:32:50;25.40;58.30
64718;DHT22;62506;46.070;14.492;2022-08-21T00:35:17;25.40;58.30
64718;DHT22;62506;46.070;14.492;2022-08-21T00:37:43;25.40;58.20
64718;DHT22;62506;46.070;14.492;2022-08-21T00:40:10;25.40;58.20
64718;DHT22;62506;46.070;14.492;2022-08-21T00:42:36;25.40;58.30
64718;DHT22;62506;46.070;14.492;2022-08-21T00:45:03;25.40;58.30
64718;DHT22;62506;46.070;14.492;2022-08-21T00:47:28;25.40;58.30
64718;DHT22;62506;46.070;14.492;2022-08-21T00:49:54;25.40;58.30
64718;DHT22;62506;46.070;14.492;2022-08-21T00:52:21;25.40;58.20
64718;DHT22;62506;46.070;14.492;2022-08-21T00:54:47;25.40;58.20
64718;DHT22;62506;46.070;14.492;2022-08-21T00:57:15;25.40;58.20
64718;DHT22;62506;46.070;14.492;2022-08-21T00:59:43;25.40;58.20
64718;DHT22;62506;46.070;14.492;2022-08-21T01:02:09;25.40;58.20
64718;DHT22;62506;46.070;14.492;2022-08-21T01:04:35;25.40;58.10
64718;DHT22;62506;46.070;14.492;2022-08-21T01:07:00;25.40;58.10
64718;DHT22;62506;46.070;14.492;2022-08-21T01:09:26;25.40;58.00
64718;DHT22;62506;46.070;14.492;2022-08-21T01:11:51;25.40;58.00
64718;DHT22;62506;46.070;14.492;2022-08-21T01:14:17;25.40;58.00
64718;DHT22;62506;46.070;14.492;2022-08-21T01:16:47;25.40;58.10
64718;DHT22;62506;46.070;14.492;2022-08-21T01:19:13;25.40;58.00
64718;DHT22;62506;46.070;14.492;2022-08-21T01:21:40;25.40;58.00
64718;DHT22;62506;46.070;14.492;2022-08-21T01:24:06;25.40;58.00
64718;DHT22;62506;46.070;14.492;2022-08-21T01:26:32;25.40;58.00
64718;DHT22;62506;46.070;14.492;2022-08-21T01:29:11;25.40;58.10
64718;DHT22;62506;46.070;14.492;2022-08-21T01:31:38;25.40;58.30
64718;DHT22;62506;46.070;14.492;2022-08-21T01:34:04;25.40;58.10
64718;DHT22;62506;46.070;14.492;2022-08-21T01:36:30;25.40;58.20
64718;DHT22;62506;46.070;14.492;2022-08-21T01:38:55;25.40;58.10
64718;DHT22;62506;46.070;14.492;2022-08-21T01:41:21;25.30;58.00
64718;DHT22;62506;46.070;14.492;2022-08-21T01:43:46;25.40;58.10
64718;DHT22;62506;46.070;14.492;2022-08-21T01:46:12;25.30;58.00
64718;DHT22;62506;46.070;14.492;2022-08-21T01:48:38;25.30;58.00
64718;DHT22;62506;46.070;14.492;2022-08-21T01:51:04;25.30;58.00
64718;DHT22;62506;46.070;14.492;2022-08-21T01:53:30;25.30;58.00
64718;DHT22;62506;46.070;14.492;2022-08-21T01:55:56;25.30;58.00
64718;DHT22;62506;46.070;14.492;2022-08-21T01:58:21;25.30;58.00
64718;DHT22;62506;46.070;14.492;2022-08-21T02:00:47;25.30;58.00
64718;DHT22;62506;46.070;14.492;2022-08-21T02:03:13;25.30;58.00
64718;DHT22;62506;46.070;14.492;2022-08-21T02:05:38;25.30;57.90
64718;DHT22;62506;46.070;14.492;2022-08-21T02:08:05;25.30;57.90
64718;DHT22;62506;46.070;14.492;2022-08-21T02:10:31;25.30;58.20
64718;DHT22;62506;46.070;14.492;2022-08-21T02:12:58;25.30;57.90
64718;DHT22;62506;46.070;14.492;2022-08-21T02:15:24;25.30;57.90
64718;DHT22;62506;46.070;14.492;2022-08-21T02:17:52;25.30;57.80
64718;DHT22;62506;46.070;14.492;2022-08-21T02:20:28;25.30;57.80
64718;DHT22;62506;46.070;14.492;2022-08-21T02:22:54;25.30;57.80
64718;DHT22;62506;46.070;14.492;2022-08-21T02:25:20;25.30;57.80
64718;DHT22;62506;46.070;14.492;2022-08-21T02:27:46;25.30;57.80
64718;DHT22;62506;46.070;14.492;2022-08-21T02:30:17;25.30;57.80
64718;DHT22;62506;46.070;14.492;2022-08-21T02:32:43;25.30;57.80
64718;DHT22;62506;46.070;14.492;2022-08-21T02:35:10;25.40;57.80
64718;DHT22;62506;46.070;14.492;2022-08-21T02:37:42;25.30;57.60
64718;DHT22;62506;46.070;14.492;2022-08-21T02:40:08;25.40;57.70
64718;DHT22;62506;46.070;14.492;2022-08-21T02:42:36;25.40;57.80
64718;DHT22;62506;46.070;14.492;2022-08-21T02:45:02;25.30;57.70
64718;DHT22;62506;46.070;14.492;2022-08-21T02:47:28;25.30;57.70
64718;DHT22;62506;46.070;14.492;2022-08-21T02:49:53;25.30;57.70
64718;DHT22;62506;46.070;14.492;2022-08-21T02:52:18;25.30;57.60
64718;DHT22;62506;46.070;14.492;2022-08-21T02:54:44;25.30;57.80
64718;DHT22;62506;46.070;14.492;2022-08-21T02:57:09;25.30;57.60
64718;DHT22;62506;46.070;14.492;2022-08-21T02:59:35;25.30;57.60
64718;DHT22;62506;46.070;14.492;2022-08-21T03:02:01;25.30;57.70
64718;DHT22;62506;46.070;14.492;2022-08-21T03:04:27;25.30;57.70
64718;DHT22;62506;46.070;14.492;2022-08-21T03:06:52;25.30;57.80
64718;DHT22;62506;46.070;14.492;2022-08-21T03:09:18;25.30;57.70
64718;DHT22;62506;46.070;14.492;2022-08-21T03:11:43;25.30;57.70
64718;DHT22;62506;46.070;14.492;2022-08-21T03:14:09;25.30;57.70
64718;DHT22;62506;46.070;14.492;2022-08-21T03:16:34;25.30;57.70
64718;DHT22;62506;46.070;14.492;2022-08-21T03:19:00;25.30;57.70
64718;DHT22;62506;46.070;14.492;2022-08-21T03:21:26;25.30;57.70
64718;DHT22;62506;46.070;14.492;2022-08-21T03:23:51;25.30;57.70
64718;DHT22;62506;46.070;14.492;2022-08-21T03:26:19;25.30;57.70
64718;DHT22;62506;46.070;14.492;2022-08-21T03:28:44;25.30;57.80
64718;DHT22;62506;46.070;14.492;2022-08-21T03:31:10;25.30;57.80
64718;DHT22;62506;46.070;14.492;2022-08-21T03:33:35;25.30;57.70
64718;DHT22;62506;46.070;14.492;2022-08-21T03:36:03;25.30;57.80
64718;DHT22;62506;46.070;14.492;2022-08-21T03:38:30;25.30;57.80
64718;DHT22;62506;46.070;14.492;2022-08-21T03:40:56;25.30;57.80
64718;DHT22;62506;46.070;14.492;2022-08-21T03:43:22;25.30;57.80
64718;DHT22;62506;46.070;14.492;2022-08-21T03:45:47;25.30;57.80
64718;DHT22;62506;46.070;14.492;2022-08-21T03:48:13;25.20;57.70
64718;DHT22;62506;46.070;14.492;2022-08-21T03:50:40;25.20;57.80
64718;DHT22;62506;46.070;14.492;2022-08-21T03:53:06;25.30;57.70
64718;DHT22;62506;46.070;14.492;2022-08-21T03:55:31;25.20;57.60
64718;DHT22;62506;46.070;14.492;2022-08-21T03:57:57;25.20;57.70
64718;DHT22;62506;46.070;14.492;2022-08-21T04:00:23;25.20;57.60
64718;DHT22;62506;46.070;14.492;2022-08-21T04:02:48;25.20;57.60
64718;DHT22;62506;46.070;14.492;2022-08-21T04:05:15;25.20;57.70
64718;DHT22;62506;46.070;14.492;2022-08-21T04:07:59;25.20;57.60
64718;DHT22;62506;46.070;14.492;2022-08-21T04:10:26;25.20;57.60
64718;DHT22;62506;46.070;14.492;2022-08-21T04:12:52;25.20;57.60
64718;DHT22;62506;46.070;14.492;2022-08-21T04:15:18;25.20;57.60
64718;DHT22;62506;46.070;14.492;2022-08-21T04:17:43;25.20;57.60
64718;DHT22;62506;46.070;14.492;2022-08-21T04:20:09;25.20;57.50
64718;DHT22;62506;46.070;14.492;2022-08-21T04:22:34;25.20;57.60
64718;DHT22;62506;46.070;14.492;2022-08-21T04:25:00;25.20;57.50
64718;DHT22;62506;46.070;14.492;2022-08-21T04:27:25;25.20;57.50
64718;DHT22;62506;46.070;14.492;2022-08-21T04:29:51;25.20;57.50
64718;DHT22;62506;46.070;14.492;2022-08-21T04:32:25;25.20;57.50
64718;DHT22;62506;46.070;14.492;2022-08-21T04:34:57;25.20;57.50
64718;DHT22;62506;46.070;14.492;2022-08-21T04:37:22;25.20;57.40
64718;DHT22;62506;46.070;14.492;2022-08-21T04:39:48;25.20;57.40
64718;DHT22;62506;46.070;14.492;2022-08-21T04:42:13;25.20;57.40
64718;DHT22;62506;46.070;14.492;2022-08-21T04:44:39;25.20;57.40
64718;DHT22;62506;46.070;14.492;2022-08-21T04:47:06;25.20;57.40
64718;DHT22;62506;46.070;14.492;2022-08-21T04:49:32;25.20;57.50
64718;DHT22;62506;46.070;14.492;2022-08-21T04:51:58;25.20;57.40
64718;DHT22;62506;46.070;14.492;2022-08-21T04:54:23;25.20;57.50
64718;DHT22;62506;46.070;14.492;2022-08-21T04:56:50;25.20;57.40
64718;DHT22;62506;46.070;14.492;2022-08-21T04:59:39;25.20;57.50
64718;DHT22;62506;46.070;14.492;2022-08-21T05:02:02;25.10;57.40
64718;DHT22;62506;46.070;14.492;2022-08-21T05:04:30;25.20;57.50
64718;DHT22;62506;46.070;14.492;2022-08-21T05:06:57;25.10;57.40
64718;DHT22;62506;46.070;14.492;2022-08-21T05:09:23;25.10;57.50
64718;DHT22;62506;46.070;14.492;2022-08-21T05:11:49;25.10;57.40
64718;DHT22;62506;46.070;14.492;2022-08-21T05:14:15;25.10;57.40
64718;DHT22;62506;46.070;14.492;2022-08-21T05:16:41;25.10;57.40
64718;DHT22;62506;46.070;14.492;2022-08-21T05:19:08;25.10;57.40
64718;DHT22;62506;46.070;14.492;2022-08-21T05:21:34;25.10;57.50
64718;DHT22;62506;46.070;14.492;2022-08-21T05:24:00;25.10;57.40
64718;DHT22;62506;46.070;14.492;2022-08-21T05:26:26;25.10;57.40
64718;DHT22;62506;46.070;14.492;2022-08-21T05:28:51;25.10;57.40
64718;DHT22;62506;46.070;14.492;2022-08-21T05:31:17;25.10;57.40
64718;DHT22;62506;46.070;14.492;2022-08-21T05:33:42;25.20;57.50
64718;DHT22;62506;46.070;14.492;2022-08-21T05:36:08;25.20;57.40
64718;DHT22;62506;46.070;14.492;2022-08-21T05:38:34;25.20;57.50
64718;DHT22;62506;46.070;14.492;2022-08-21T05:40:59;25.20;57.50
64718;DHT22;62506;46.070;14.492;2022-08-21T05:43:25;25.20;57.50
64718;DHT22;62506;46.070;14.492;2022-08-21T05:45:50;25.20;57.40
64718;DHT22;62506;46.070;14.492;2022-08-21T05:48:17;25.20;57.40
64718;DHT22;62506;46.070;14.492;2022-08-21T05:50:43;25.20;57.40
64718;DHT22;62506;46.070;14.492;2022-08-21T05:53:09;25.20;57.40
64718;DHT22;62506;46.070;14.492;2022-08-21T05:55:35;25.20;57.30
64718;DHT22;62506;46.070;14.492;2022-08-21T05:58:02;25.20;57.30
64718;DHT22;62506;46.070;14.492;2022-08-21T06:00:27;25.20;57.30
64718;DHT22;62506;46.070;14.492;2022-08-21T06:02:53;25.20;57.30
64718;DHT22;62506;46.070;14.492;2022-08-21T06:05:18;25.20;57.30
64718;DHT22;62506;46.070;14.492;2022-08-21T06:07:44;25.20;57.30
64718;DHT22;62506;46.070;14.492;2022-08-21T06:10:09;25.20;57.30
64718;DHT22;62506;46.070;14.492;2022-08-21T06:12:36;25.20;57.30
64718;DHT22;62506;46.070;14.492;2022-08-21T06:15:02;25.20;57.30
64718;DHT22;62506;46.070;14.492;2022-08-21T06:17:28;25.20;57.30
64718;DHT22;62506;46.070;14.492;2022-08-21T06:19:53;25.20;57.40
64718;DHT22;62506;46.070;14.492;2022-08-21T06:22:19;25.20;57.50
64718;DHT22;62506;46.070;14.492;2022-08-21T06:24:45;25.20;57.50
64718;DHT22;62506;46.070;14.492;2022-08-21T06:27:11;25.20;57.40
64718;DHT22;62506;46.070;14.492;2022-08-21T06:29:36;25.30;57.40
64718;DHT22;62506;46.070;14.492;2022-08-21T06:32:03;25.20;57.50
64718;DHT22;62506;46.070;14.492;2022-08-21T06:34:28;25.20;57.40
64718;DHT22;62506;46.070;14.492;2022-08-21T06:36:54;25.20;57.40
64718;DHT22;62506;46.070;14.492;2022-08-21T06:39:19;25.20;57.40
64718;DHT22;62506;46.070;14.492;2022-08-21T06:41:45;25.20;57.40
64718;DHT22;62506;46.070;14.492;2022-08-21T06:44:11;25.20;57.00
64718;DHT22;62506;46.070;14.492;2022-08-21T06:46:36;25.00;56.80
64718;DHT22;62506;46.070;14.492;2022-08-21T06:49:02;24.80;57.30
64718;DHT22;62506;46.070;14.492;2022-08-21T06:51:28;24.80;57.50
64718;DHT22;62506;46.070;14.492;2022-08-21T06:53:53;24.90;57.90
64718;DHT22;62506;46.070;14.492;2022-08-21T06:56:19;25.00;57.40
64718;DHT22;62506;46.070;14.492;2022-08-21T06:58:45;25.00;57.50
64718;DHT22;62506;46.070;14.492;2022-08-21T07:01:10;25.00;57.50
64718;DHT22;62506;46.070;14.492;2022-08-21T07:03:38;25.10;57.50
64718;DHT22;62506;46.070;14.492;2022-08-21T07:06:04;25.10;57.50
64718;DHT22;62506;46.070;14.492;2022-08-21T07:08:30;25.10;57.00
64718;DHT22;62506;46.070;14.492;2022-08-21T07:10:56;25.00;57.50
64718;DHT22;62506;46.070;14.492;2022-08-21T07:13:22;25.00;56.90
64718;DHT22;62506;46.070;14.492;2022-08-21T07:15:47;24.90;56.80
64718;DHT22;62506;46.070;14.492;2022-08-21T07:18:13;24.80;56.90
64718;DHT22;62506;46.070;14.492;2022-08-21T07:20:39;24.80;57.10
64718;DHT22;62506;46.070;14.492;2022-08-21T07:23:06;24.70;56.90
64718;DHT22;62506;46.070;14.492;2022-08-21T07:25:31;24.80;57.10
64718;DHT22;62506;46.070;14.492;2022-08-21T07:27:57;24.70;57.40
64718;DHT22;62506;46.070;14.492;2022-08-21T07:30:23;24.80;58.10
64718;DHT22;62506;46.070;14.492;2022-08-21T07:32:49;24.80;57.80
64718;DHT22;62506;46.070;14.492;2022-08-21T07:35:15;24.90;57.80
64718;DHT22;62506;46.070;14.492;2022-08-21T07:37:41;25.00;57.90
64718;DHT22;62506;46.070;14.492;2022-08-21T07:40:07;25.00;58.00
64718;DHT22;62506;46.070;14.492;2022-08-21T07:42:32;24.90;57.80
64718;DHT22;62506;46.070;14.492;2022-08-21T07:44:58;24.80;58.20
64718;DHT22;62506;46.070;14.492;2022-08-21T07:47:23;24.90;58.10
64718;DHT22;62506;46.070;14.492;2022-08-21T07:49:49;25.00;57.90
64718;DHT22;62506;46.070;14.492;2022-08-21T07:52:14;25.00;57.90
64718;DHT22;62506;46.070;14.492;2022-08-21T07:54:40;25.00;57.80
64718;DHT22;62506;46.070;14.492;2022-08-21T07:57:05;25.00;57.80
64718;DHT22;62506;46.070;14.492;2022-08-21T07:59:31;25.00;57.80
64718;DHT22;62506;46.070;14.492;2022-08-21T08:01:56;25.00;58.40
64718;DHT22;62506;46.070;14.492;2022-08-21T08:04:22;25.10;57.60
64718;DHT22;62506;46.070;14.492;2022-08-21T08:06:47;25.10;57.60
64718;DHT22;62506;46.070;14.492;2022-08-21T08:09:13;25.10;57.50
64718;DHT22;62506;46.070;14.492;2022-08-21T08:11:39;25.10;57.80
64718;DHT22;62506;46.070;14.492;2022-08-21T08:14:06;25.10;57.50
64718;DHT22;62506;46.070;14.492;2022-08-21T08:16:31;25.10;58.00
64718;DHT22;62506;46.070;14.492;2022-08-21T08:18:57;25.20;57.40
64718;DHT22;62506;46.070;14.492;2022-08-21T08:21:23;25.20;57.30
64718;DHT22;62506;46.070;14.492;2022-08-21T08:23:48;25.20;57.90
64718;DHT22;62506;46.070;14.492;2022-08-21T08:26:14;25.20;57.20
64718;DHT22;62506;46.070;14.492;2022-08-21T08:28:40;25.20;57.20
64718;DHT22;62506;46.070;14.492;2022-08-21T08:31:06;25.30;57.30
64718;DHT22;62506;46.070;14.492;2022-08-21T08:33:32;25.30;57.30
64718;DHT22;62506;46.070;14.492;2022-08-21T08:35:57;25.30;57.10
64718;DHT22;62506;46.070;14.492;2022-08-21T08:38:24;25.30;57.40
64718;DHT22;62506;46.070;14.492;2022-08-21T08:43:35;25.40;57.40
64718;DHT22;62506;46.070;14.492;2022-08-21T08:46:02;25.40;57.10
64718;DHT22;62506;46.070;14.492;2022-08-21T08:50:57;25.40;56.90
64718;DHT22;62506;46.070;14.492;2022-08-21T08:53:28;25.40;56.90
64718;DHT22;62506;46.070;14.492;2022-08-21T08:55:54;25.40;56.90
64718;DHT22;62506;46.070;14.492;2022-08-21T08:58:34;25.40;56.80
64718;DHT22;62506;46.070;14.492;2022-08-21T09:01:03;25.40;56.80
64718;DHT22;62506;46.070;14.492;2022-08-21T09:03:30;25.50;56.90
64718;DHT22;62506;46.070;14.492;2022-08-21T09:06:05;25.40;56.80
64718;DHT22;62506;46.070;14.492;2022-08-21T09:11:50;25.50;56.90
64718;DHT22;62506;46.070;14.492;2022-08-21T09:16:24;25.50;56.80
64718;DHT22;62506;46.070;14.492;2022-08-21T09:24:00;25.50;56.60
64718;DHT22;62506;46.070;14.492;2022-08-21T09:26:29;25.50;56.50
64718;DHT22;62506;46.070;14.492;2022-08-21T09:28:57;25.50;56.60
64718;DHT22;62506;46.070;14.492;2022-08-21T09:31:28;25.50;56.30
64718;DHT22;62506;46.070;14.492;2022-08-21T09:34:01;25.50;56.20
64718;DHT22;62506;46.070;14.492;2022-08-21T09:36:45;25.50;56.20
64718;DHT22;62506;46.070;14.492;2022-08-21T09:39:13;25.50;56.10
64718;DHT22;62506;46.070;14.492;2022-08-21T09:41:46;25.50;56.40
64718;DHT22;62506;46.070;14.492;2022-08-21T09:44:23;25.50;56.40
64718;DHT22;62506;46.070;14.492;2022-08-21T09:46:50;25.60;56.40
64718;DHT22;62506;46.070;14.492;2022-08-21T09:49:25;25.50;56.40
64718;DHT22;62506;46.070;14.492;2022-08-21T09:51:51;25.60;56.30
64718;DHT22;62506;46.070;14.492;2022-08-21T09:54:18;25.60;56.40
64718;DHT22;62506;46.070;14.492;2022-08-21T09:57:00;25.60;56.40
64718;DHT22;62506;46.070;14.492;2022-08-21T09:59:45;25.50;56.50
64718;DHT22;62506;46.070;14.492;2022-08-21T10:02:26;25.60;56.60
64718;DHT22;62506;46.070;14.492;2022-08-21T10:04:54;25.60;56.10
64718;DHT22;62506;46.070;14.492;2022-08-21T10:07:21;25.50;56.20
64718;DHT22;62506;46.070;14.492;2022-08-21T10:09:57;25.50;57.10
64718;DHT22;62506;46.070;14.492;2022-08-21T10:12:24;25.60;56.50
64718;DHT22;62506;46.070;14.492;2022-08-21T10:20:46;25.60;56.10
64718;DHT22;62506;46.070;14.492;2022-08-21T10:25:42;25.60;55.90
64718;DHT22;62506;46.070;14.492;2022-08-21T10:30:50;25.60;55.50
64718;DHT22;62506;46.070;14.492;2022-08-21T10:35:51;25.60;55.70
64718;DHT22;62506;46.070;14.492;2022-08-21T10:48:57;25.70;55.60
64718;DHT22;62506;46.070;14.492;2022-08-21T10:53:58;25.70;55.40
64718;DHT22;62506;46.070;14.492;2022-08-21T10:56:30;25.70;55.40
64718;DHT22;62506;46.070;14.492;2022-08-21T11:01:25;25.70;55.40
64718;DHT22;62506;46.070;14.492;2022-08-21T11:04:04;25.70;55.10
64718;DHT22;62506;46.070;14.492;2022-08-21T11:06:32;25.70;55.30
64718;DHT22;62506;46.070;14.492;2022-08-21T11:09:12;25.70;55.60
64718;DHT22;62506;46.070;14.492;2022-08-21T11:11:41;25.70;55.50
64718;DHT22;62506;46.070;14.492;2022-08-21T11:16:44;25.70;55.50
64718;DHT22;62506;46.070;14.492;2022-08-21T11:19:22;25.70;55.40
64718;DHT22;62506;46.070;14.492;2022-08-21T11:29:34;25.80;55.00
64718;DHT22;62506;46.070;14.492;2022-08-21T11:32:06;25.80;54.70
64718;DHT22;62506;46.070;14.492;2022-08-21T11:37:03;25.80;54.60
64718;DHT22;62506;46.070;14.492;2022-08-21T11:39:49;25.80;55.10
64718;DHT22;62506;46.070;14.492;2022-08-21T11:42:29;25.80;54.80
64718;DHT22;62506;46.070;14.492;2022-08-21T11:45:21;25.80;54.60
64718;DHT22;62506;46.070;14.492;2022-08-21T11:50:23;25.80;54.20
64718;DHT22;62506;46.070;14.492;2022-08-21T11:53:07;25.80;54.00
64718;DHT22;62506;46.070;14.492;2022-08-21T11:55:41;25.90;54.10
64718;DHT22;62506;46.070;14.492;2022-08-21T11:58:51;25.80;54.00
64718;DHT22;62506;46.070;14.492;2022-08-21T12:01:03;25.80;54.20
64718;DHT22;62506;46.070;14.492;2022-08-21T12:03:33;25.80;54.50
64718;DHT22;62506;46.070;14.492;2022-08-21T12:06:02;25.70;54.90
64718;DHT22;62506;46.070;14.492;2022-08-21T12:08:39;25.80;55.20
64718;DHT22;62506;46.070;14.492;2022-08-21T12:11:10;25.80;55.10
64718;DHT22;62506;46.070;14.492;2022-08-21T12:13:55;25.80;55.20
64718;DHT22;62506;46.070;14.492;2022-08-21T12:17:03;25.80;55.30
64718;DHT22;62506;46.070;14.492;2022-08-21T12:19:28;25.80;55.40
64718;DHT22;62506;46.070;14.492;2022-08-21T12:21:58;25.80;55.40
64718;DHT22;62506;46.070;14.492;2022-08-21T12:31:54;25.90;55.70
64718;DHT22;62506;46.070;14.492;2022-08-21T12:34:20;25.90;55.80
64718;DHT22;62506;46.070;14.492;2022-08-21T12:36:57;25.90;55.80
64718;DHT22;62506;46.070;14.492;2022-08-21T12:39:27;25.90;55.90
64718;DHT22;62506;46.070;14.492;2022-08-21T12:42:00;26.00;55.80
64718;DHT22;62506;46.070;14.492;2022-08-21T12:44:35;26.00;55.70
64718;DHT22;62506;46.070;14.492;2022-08-21T12:47:06;25.90;55.90
64718;DHT22;62506;46.070;14.492;2022-08-21T12:49:33;25.90;55.80
64718;DHT22;62506;46.070;14.492;2022-08-21T12:52:02;25.90;56.20
64718;DHT22;62506;46.070;14.492;2022-08-21T12:54:36;25.90;56.40
64718;DHT22;62506;46.070;14.492;2022-08-21T12:57:03;26.00;56.20
64718;DHT22;62506;46.070;14.492;2022-08-21T12:59:29;26.00;56.50
64718;DHT22;62506;46.070;14.492;2022-08-21T13:01:55;26.10;56.40
64718;DHT22;62506;46.070;14.492;2022-08-21T13:04:23;26.10;56.20
64718;DHT22;62506;46.070;14.492;2022-08-21T13:06:50;26.10;56.60
64718;DHT22;62506;46.070;14.492;2022-08-21T13:09:18;26.10;56.50
64718;DHT22;62506;46.070;14.492;2022-08-21T13:11:45;26.00;56.50
64718;DHT22;62506;46.070;14.492;2022-08-21T13:16:56;26.10;54.60
64718;DHT22;62506;46.070;14.492;2022-08-21T13:19:24;26.00;49.00
64718;DHT22;62506;46.070;14.492;2022-08-21T13:21:50;26.00;47.20
64718;DHT22;62506;46.070;14.492;2022-08-21T13:24:28;26.00;46.00
64718;DHT22;62506;46.070;14.492;2022-08-21T13:26:54;25.90;45.50
64718;DHT22;62506;46.070;14.492;2022-08-21T13:29:21;26.00;45.30
64718;DHT22;62506;46.070;14.492;2022-08-21T13:31:49;25.90;44.90
64718;DHT22;62506;46.070;14.492;2022-08-21T13:34:18;25.90;45.70
64718;DHT22;62506;46.070;14.492;2022-08-21T13:36:44;25.90;48.50
64718;DHT22;62506;46.070;14.492;2022-08-21T13:39:12;25.90;49.20
64718;DHT22;62506;46.070;14.492;2022-08-21T13:41:40;25.90;49.70
64718;DHT22;62506;46.070;14.492;2022-08-21T13:46:39;25.80;50.60
64718;DHT22;62506;46.070;14.492;2022-08-21T13:49:05;25.80;50.90
64718;DHT22;62506;46.070;14.492;2022-08-21T13:51:31;25.90;51.30
64718;DHT22;62506;46.070;14.492;2022-08-21T13:53:57;25.80;51.50
64718;DHT22;62506;46.070;14.492;2022-08-21T13:56:33;25.80;51.90
64718;DHT22;62506;46.070;14.492;2022-08-21T13:59:06;25.80;52.10
64718;DHT22;62506;46.070;14.492;2022-08-21T14:01:39;25.80;52.40
64718;DHT22;62506;46.070;14.492;2022-08-21T14:04:20;25.80;52.60
64718;DHT22;62506;46.070;14.492;2022-08-21T14:06:47;25.80;52.80
64718;DHT22;62506;46.070;14.492;2022-08-21T14:09:39;25.80;47.90
64718;DHT22;62506;46.070;14.492;2022-08-21T14:12:14;25.80;46.30
64718;DHT22;62506;46.070;14.492;2022-08-21T14:14:40;25.80;45.60
64718;DHT22;62506;46.070;14.492;2022-08-21T14:17:07;25.80;45.10
64718;DHT22;62506;46.070;14.492;2022-08-21T14:19:44;25.80;44.70
64718;DHT22;62506;46.070;14.492;2022-08-21T14:22:27;25.80;44.50
64718;DHT22;62506;46.070;14.492;2022-08-21T14:25:28;25.80;44.40
64718;DHT22;62506;46.070;14.492;2022-08-21T14:27:49;25.80;44.30
64718;DHT22;62506;46.070;14.492;2022-08-21T14:30:20;25.80;45.00
64718;DHT22;62506;46.070;14.492;2022-08-21T14:33:04;25.80;45.70
64718;DHT22;62506;46.070;14.492;2022-08-21T14:35:33;25.80;46.50
64718;DHT22;62506;46.070;14.492;2022-08-21T14:38:01;25.80;47.60
64718;DHT22;62506;46.070;14.492;2022-08-21T14:40:30;25.80;48.50
64718;DHT22;62506;46.070;14.492;2022-08-21T14:42:58;25.90;46.90
64718;DHT22;62506;46.070;14.492;2022-08-21T14:45:30;25.90;45.90
64718;DHT22;62506;46.070;14.492;2022-08-21T14:47:56;25.90;45.30
64718;DHT22;62506;46.070;14.492;2022-08-21T14:50:45;25.90;45.00
64718;DHT22;62506;46.070;14.492;2022-08-21T14:53:11;25.90;45.40
64718;DHT22;62506;46.070;14.492;2022-08-21T14:55:37;25.80;45.50
64718;DHT22;62506;46.070;14.492;2022-08-21T14:58:22;25.90;45.40
64718;DHT22;62506;46.070;14.492;2022-08-21T15:00:48;25.80;46.10
64718;DHT22;62506;46.070;14.492;2022-08-21T15:03:14;25.80;46.70
64718;DHT22;62506;46.070;14.492;2022-08-21T15:05:40;25.90;45.90
64718;DHT22;62506;46.070;14.492;2022-08-21T15:08:05;25.90;45.90
64718;DHT22;62506;46.070;14.492;2022-08-21T15:10:31;25.80;46.00
64718;DHT22;62506;46.070;14.492;2022-08-21T15:12:58;25.80;45.80
64718;DHT22;62506;46.070;14.492;2022-08-21T15:15:23;25.80;45.40
64718;DHT22;62506;46.070;14.492;2022-08-21T15:17:49;25.90;45.30
64718;DHT22;62506;46.070;14.492;2022-08-21T15:20:14;25.80;45.80
64718;DHT22;62506;46.070;14.492;2022-08-21T15:22:40;25.90;45.70
64718;DHT22;62506;46.070;14.492;2022-08-21T15:25:05;25.80;45.70
64718;DHT22;62506;46.070;14.492;2022-08-21T15:27:31;25.90;45.50
64718;DHT22;62506;46.070;14.492;2022-08-21T15:29:57;25.90;45.20
64718;DHT22;62506;46.070;14.492;2022-08-21T15:32:24;25.80;45.60
64718;DHT22;62506;46.070;14.492;2022-08-21T15:34:51;25.80;46.00
64718;DHT22;62506;46.070;14.492;2022-08-21T15:37:17;25.90;45.40
64718;DHT22;62506;46.070;14.492;2022-08-21T15:39:43;25.80;45.60
64718;DHT22;62506;46.070;14.492;2022-08-21T15:42:09;25.90;45.40
64718;DHT22;62506;46.070;14.492;2022-08-21T15:44:36;25.90;45.00
64718;DHT22;62506;46.070;14.492;2022-08-21T15:47:01;25.90;44.90
64718;DHT22;62506;46.070;14.492;2022-08-21T15:49:27;25.80;44.50
64718;DHT22;62506;46.070;14.492;2022-08-21T15:51:53;25.80;44.30
64718;DHT22;62506;46.070;14.492;2022-08-21T15:54:18;25.90;44.00
64718;DHT22;62506;46.070;14.492;2022-08-21T15:56:44;25.80;44.20
64718;DHT22;62506;46.070;14.492;2022-08-21T15:59:15;25.80;44.10
64718;DHT22;62506;46.070;14.492;2022-08-21T16:01:42;25.80;44.30
64718;DHT22;62506;46.070;14.492;2022-08-21T16:04:07;25.80;44.00
64718;DHT22;62506;46.070;14.492;2022-08-21T16:06:33;25.90;43.90
64718;DHT22;62506;46.070;14.492;2022-08-21T16:08:59;25.90;43.60
64718;DHT22;62506;46.070;14.492;2022-08-21T16:11:25;25.80;43.70
64718;DHT22;62506;46.070;14.492;2022-08-21T16:13:51;25.90;43.60
64718;DHT22;62506;46.070;14.492;2022-08-21T16:16:20;25.80;43.50
64718;DHT22;62506;46.070;14.492;2022-08-21T16:18:47;25.90;43.70
64718;DHT22;62506;46.070;14.492;2022-08-21T16:21:13;25.90;43.70
64718;DHT22;62506;46.070;14.492;2022-08-21T16:23:39;25.90;43.70
64718;DHT22;62506;46.070;14.492;2022-08-21T16:26:06;25.80;43.40
64718;DHT22;62506;46.070;14.492;2022-08-21T16:28:33;25.80;43.60
64718;DHT22;62506;46.070;14.492;2022-08-21T16:30:59;25.90;43.60
64718;DHT22;62506;46.070;14.492;2022-08-21T16:33:32;25.90;43.70